Time;durP1;ratioP1;P1;durP2;ratioP2;P2;SDS_P1;SDS_P2;PMS_P1;PMS_P2;Temp;Humidity;BMP_temperature;BMP_pressure;BME280_temperature;BME280_humidity;BME280_pressure;Samples;Min_cycle;Max_cycle;Signal;HPM_P1;HPM_P2
2022/09/26 00:01:49;;;;;;;4.20;2.67;;;;;;;12.88;77.25;101011.84;5041082;28;20068;-77
2022/09/26 00:04:18;;;;;;;5.13;2.70;;;;;;;12.87;77.20;101012.69;5043698;28;20040;-77
2022/09/26 00:06:44;;;;;;;4.72;2.53;;;;;;;12.87;77.25;101004.09;5039489;28;20055;-76
2022/09/26 00:09:11;;;;;;;6.07;2.92;;;;;;;12.87;77.20;100994.63;5042381;28;20034;-77
2022/09/26 00:11:37;;;;;;;4.20;2.50;;;;;;;12.86;77.35;101000.66;5042486;28;20399;-77
2022/09/26 00:14:10;;;;;;;4.65;2.50;;;;;;;12.91;77.27;100994.69;5046693;28;20036;-77
2022/09/26 00:16:37;;;;;;;5.70;2.92;;;;;;;12.88;77.21;100992.91;5027023;28;20048;-77
2022/09/26 00:19:03;;;;;;;6.90;2.95;;;;;;;12.85;77.42;100982.53;5044158;28;20229;-77
2022/09/26 00:21:29;;;;;;;3.53;2.88;;;;;;;12.84;77.33;100984.22;5046653;28;20029;-77
2022/09/26 00:23:56;;;;;;;7.82;2.90;;;;;;;12.85;77.16;100980.81;5043121;28;20032;-77
2022/09/26 00:26:23;;;;;;;4.05;2.95;;;;;;;12.83;77.53;100971.31;5045336;28;20017;-77
2022/09/26 00:28:49;;;;;;;3.63;2.63;;;;;;;12.84;77.70;100966.16;5023908;28;20043;-77
2022/09/26 00:31:21;;;;;;;5.60;2.65;;;;;;;12.86;77.81;100961.03;5039447;28;20021;-77
2022/09/26 00:33:46;;;;;;;5.97;2.63;;;;;;;12.86;77.54;100959.34;5046609;28;20107;-77
2022/09/26 00:36:12;;;;;;;6.63;3.42;;;;;;;12.88;77.52;100947.34;5027429;28;20038;-77
2022/09/26 00:38:37;;;;;;;5.55;2.63;;;;;;;12.84;78.28;100958.44;5039856;28;20021;-77
2022/09/26 00:41:04;;;;;;;3.78;2.58;;;;;;;12.79;77.70;100956.59;5041497;28;20039;-77
2022/09/26 00:43:34;;;;;;;6.85;3.28;;;;;;;12.85;77.95;100957.59;5047500;28;20033;-77
2022/09/26 00:46:12;;;;;;;4.70;2.75;;;;;;;12.85;77.88;100942.09;5047271;28;20059;-77
2022/09/26 00:48:40;;;;;;;4.63;3.03;;;;;;;12.82;77.84;100942.06;5045084;28;20029;-77
2022/09/26 00:51:06;;;;;;;6.30;2.83;;;;;;;12.82;77.92;100931.72;5046453;28;20021;-77
2022/09/26 00:53:40;;;;;;;7.32;3.15;;;;;;;12.81;77.91;100924.84;5023607;28;20058;-77
2022/09/26 00:56:21;;;;;;;5.22;3.33;;;;;;;12.87;77.84;100929.25;5043994;28;20061;-77
2022/09/26 00:58:54;;;;;;;5.90;3.30;;;;;;;12.84;78.02;100922.28;5044431;28;20087;-77
2022/09/26 01:01:19;;;;;;;5.70;3.42;;;;;;;12.81;78.19;100918.81;5044673;28;20029;-77
2022/09/26 01:03:47;;;;;;;7.50;3.67;;;;;;;12.82;77.77;100910.22;5038395;28;20033;-77
2022/09/26 01:06:14;;;;;;;7.97;3.70;;;;;;;12.82;78.18;100902.47;5043847;28;20044;-77
2022/09/26 01:08:46;;;;;;;6.28;3.22;;;;;;;12.82;77.74;100898.19;5040193;28;20089;-77
2022/09/26 01:11:14;;;;;;;8.63;3.55;;;;;;;12.75;77.90;100883.44;5009775;28;20078;-77
2022/09/26 01:13:42;;;;;;;7.60;3.55;;;;;;;12.75;77.98;100883.44;5042675;28;20036;-77
2022/09/26 01:16:07;;;;;;;6.75;3.47;;;;;;;12.78;78.01;100880.03;5038017;28;20029;-77
2022/09/26 01:18:36;;;;;;;4.75;3.13;;;;;;;12.78;78.19;100882.59;5044220;28;20036;-77
2022/09/26 01:21:01;;;;;;;;;;;;;;;12.96;76.93;100872.63;5024073;28;20029;-77
2022/09/26 01:23:45;;;;;;;5.15;3.20;;;;;;;12.84;77.61;100869.81;5042441;28;19928;-77
2022/09/26 01:26:22;;;;;;;6.43;3.45;;;;;;;12.80;77.94;100849.94;5026799;28;20033;-77
2022/09/26 01:28:54;;;;;;;7.53;4.03;;;;;;;12.77;78.08;100845.63;5042166;28;20546;-77
2022/09/26 01:31:29;;;;;;;7.97;3.50;;;;;;;12.76;77.84;100840.44;5038094;28;20100;-77
2022/09/26 01:34:35;;;;;;;4.97;3.35;;;;;;;12.84;77.52;100828.53;5034893;28;20531;-77
2022/09/26 01:37:09;;;;;;;7.50;3.90;;;;;;;12.71;78.45;100818.84;4979355;28;20778;-77
2022/09/26 01:40:24;;;;;;;6.75;3.45;;;;;;;12.82;77.71;100823.34;5042633;28;20029;-77
2022/09/26 01:43:14;;;;;;;5.22;2.90;;;;;;;12.80;77.51;100819.88;5014217;28;20048;-77
2022/09/26 01:45:51;;;;;;;5.80;3.00;;;;;;;12.79;77.82;100804.34;5037098;28;20026;-77
2022/09/26 01:48:33;;;;;;;7.13;3.35;;;;;;;12.78;77.35;100806.06;5042665;28;20025;-77
2022/09/26 01:51:08;;;;;;;5.47;2.78;;;;;;;12.74;77.35;100793.97;5044012;28;20025;-77
2022/09/26 01:53:46;;;;;;;7.93;2.78;;;;;;;12.79;77.23;100791.44;5042300;28;20029;-77
2022/09/26 01:56:18;;;;;;;5.68;2.80;;;;;;;12.73;77.23;100787.03;5038278;28;20488;-77
2022/09/26 01:58:50;;;;;;;6.03;2.70;;;;;;;12.74;76.91;100782.75;5049811;28;20475;-77
2022/09/26 02:01:18;;;;;;;6.35;2.60;;;;;;;12.69;76.79;100777.53;5041458;28;20065;-77
2022/09/26 02:03:55;;;;;;;4.80;2.40;;;;;;;12.70;77.01;100760.34;5017465;28;20532;-77
2022/09/26 02:06:47;;;;;;;4.82;2.75;;;;;;;12.76;76.65;100770.78;5043362;28;20057;-77
2022/09/26 02:09:17;;;;;;;5.45;2.88;;;;;;;12.68;76.91;100760.31;5044317;28;20056;-77
2022/09/26 02:11:47;;;;;;;6.60;2.67;;;;;;;12.67;76.99;100761.13;5042168;28;20029;-77
2022/09/26 02:14:28;;;;;;;7.68;2.60;;;;;;;12.68;76.78;100757.75;5047670;28;20024;-77
2022/09/26 02:16:58;;;;;;;5.53;2.47;;;;;;;12.66;76.65;100759.41;5042397;28;20040;-77
2022/09/26 02:19:31;;;;;;;6.68;2.30;;;;;;;12.70;76.66;100742.28;5026251;28;20098;-77
2022/09/26 02:21:57;;;;;;;4.25;2.25;;;;;;;12.65;76.50;100743.91;5042935;28;20049;-76
2022/09/26 02:24:23;;;;;;;7.00;2.30;;;;;;;12.61;76.30;100740.38;5044817;28;20120;-77
2022/09/26 02:26:50;;;;;;;5.93;2.40;;;;;;;12.65;75.97;100737.03;5042949;28;20222;-76
2022/09/26 02:29:15;;;;;;;6.57;2.55;;;;;;;12.66;76.52;100725.00;5034312;28;20040;-76
2022/09/26 02:31:48;;;;;;;9.00;2.40;;;;;;;12.67;76.41;100727.59;5038722;28;20510;-77
2022/09/26 02:34:13;;;;;;;6.32;2.38;;;;;;;12.63;76.33;100720.66;5042762;28;20190;-77
2022/09/26 02:36:38;;;;;;;5.38;1.98;;;;;;;12.64;75.72;100719.81;5018826;28;20536;-76
2022/09/26 02:39:04;;;;;;;4.78;2.63;;;;;;;12.63;75.47;100719.81;5038835;28;20044;-76
2022/09/26 02:41:47;;;;;;;4.35;2.22;;;;;;;12.66;75.39;100712.97;5038352;28;20036;-76
2022/09/26 02:44:43;;;;;;;8.27;2.55;;;;;;;12.66;75.29;100710.38;5042057;28;20025;-76
2022/09/26 02:47:38;;;;;;;7.00;2.00;;;;;;;12.69;75.10;100707.88;5040211;28;20088;-76
2022/09/26 02:50:07;;;;;;;8.98;2.35;;;;;;;12.65;75.06;100706.06;5032124;28;20553;-76
2022/09/26 02:53:16;;;;;;;7.60;2.08;;;;;;;12.70;74.65;100696.72;5044423;28;20029;-76
2022/09/26 02:56:08;;;;;;;7.38;2.00;;;;;;;12.68;74.57;100695.81;5040298;28;20033;-76
2022/09/26 02:58:50;;;;;;;5.18;1.90;;;;;;;12.67;74.97;100688.03;5029231;28;20025;-76
2022/09/26 03:01:37;;;;;;;5.38;1.98;;;;;;;12.65;74.98;100682.88;5038225;28;20025;-76
2022/09/26 03:04:30;;;;;;;8.43;2.08;;;;;;;12.69;74.74;100686.38;5042729;28;20095;-76
2022/09/26 03:07:02;;;;;;;4.00;1.98;;;;;;;12.64;75.30;100682.84;5044966;28;20100;-76
2022/09/26 03:09:29;;;;;;;6.95;1.80;;;;;;;12.60;75.28;100680.19;5021809;28;20025;-76
2022/09/26 03:11:58;;;;;;;7.35;1.98;;;;;;;12.57;74.93;100682.75;5033763;28;20082;-77
2022/09/26 03:14:25;;;;;;;4.28;1.77;;;;;;;12.55;75.28;100671.50;5043145;28;20033;-76
2022/09/26 03:16:52;;;;;;;6.82;1.98;;;;;;;12.56;75.54;100675.00;5039525;28;20044;-76
2022/09/26 03:19:26;;;;;;;9.20;2.15;;;;;;;12.57;75.55;100661.25;5008933;28;20557;-77
2022/09/26 03:21:53;;;;;;;4.03;1.70;;;;;;;12.60;75.28;100656.13;5040635;28;20025;-77
2022/09/26 03:24:18;;;;;;;5.07;1.80;;;;;;;12.57;75.59;100648.34;5036240;28;20026;-77
2022/09/26 03:26:45;;;;;;;6.40;1.80;;;;;;;12.53;75.04;100643.97;5044059;28;20025;-76
2022/09/26 03:29:11;;;;;;;4.47;1.50;;;;;;;12.53;74.60;100636.22;5033355;28;20525;-76
2022/09/26 03:31:36;;;;;;;4.38;1.55;;;;;;;12.46;75.43;100634.41;5039454;28;20163;-78
2022/09/26 03:34:02;;;;;;;9.13;1.80;;;;;;;12.53;74.89;100628.50;5044146;28;20119;-77
2022/09/26 03:36:28;;;;;;;4.57;1.70;;;;;;;12.41;74.82;100613.69;5043253;28;20391;-77
2022/09/26 03:38:53;;;;;;;6.20;1.60;;;;;;;12.46;75.43;100621.50;5027232;28;20395;-78
2022/09/26 03:41:18;;;;;;;2.28;1.40;;;;;;;12.50;76.01;100623.31;5022164;28;20174;-78
2022/09/26 03:43:44;;;;;;;5.72;1.52;;;;;;;12.46;75.39;100621.50;5042774;28;20037;-78
2022/09/26 03:46:11;;;;;;;4.13;1.55;;;;;;;12.48;76.05;100614.66;5044207;28;20029;-76
2022/09/26 03:48:37;;;;;;;3.78;1.55;;;;;;;12.44;75.89;100623.19;5041937;28;20021;-76
2022/09/26 03:51:09;;;;;;;4.47;1.60;;;;;;;12.45;76.21;100606.88;5044320;28;20025;-77
2022/09/26 03:53:36;;;;;;;7.22;1.60;;;;;;;12.38;75.99;100603.34;5020532;28;20736;-77
2022/09/26 03:56:07;;;;;;;7.40;2.72;;;;;;;12.40;75.60;100600.78;5017996;28;20025;-77
2022/09/26 03:58:33;;;;;;;3.40;1.65;;;;;;;12.37;76.06;100603.28;5045595;28;20104;-76
2022/09/26 04:01:07;;;;;;;6.03;1.60;;;;;;;12.42;76.22;100593.91;5044493;28;20049;-77
2022/09/26 04:03:35;;;;;;;5.50;1.67;;;;;;;12.38;75.30;100592.13;5037084;28;20028;-77
2022/09/26 04:06:01;;;;;;;7.83;1.70;;;;;;;12.38;76.02;100587.88;5046525;28;20098;-77
2022/09/26 04:08:27;;;;;;;6.25;1.50;;;;;;;12.39;75.44;100583.56;5044521;28;20029;-77
2022/09/26 04:10:59;;;;;;;5.55;1.58;;;;;;;12.42;75.87;100573.28;5039911;28;20038;-77
2022/09/26 04:13:24;;;;;;;4.00;1.50;;;;;;;12.39;75.68;100565.53;5041294;28;20109;-77
2022/09/26 04:15:55;;;;;;;5.85;1.63;;;;;;;12.36;75.46;100553.44;5053397;28;20045;-77
2022/09/26 04:18:20;;;;;;;5.70;1.48;;;;;;;12.33;75.81;100548.25;5029409;28;20043;-77
2022/09/26 04:20:45;;;;;;;4.22;1.60;;;;;;;12.33;75.16;100540.50;5028703;28;20025;-77
2022/09/26 04:23:12;;;;;;;3.92;1.80;;;;;;;12.32;75.98;100537.06;5042412;28;20113;-77
2022/09/26 04:25:37;;;;;;;7.40;1.77;;;;;;;12.30;75.20;100538.72;5042248;28;20025;-77
2022/09/26 04:28:03;;;;;;;9.60;1.95;;;;;;;12.29;75.27;100533.56;5041950;28;20118;-76
2022/09/26 04:30:29;;;;;;;6.55;1.70;;;;;;;12.32;75.37;100523.31;5039278;28;20029;-77
2022/09/26 04:32:55;;;;;;;8.95;2.13;;;;;;;12.28;75.43;100514.66;5024262;28;20511;-77
2022/09/26 04:35:20;;;;;;;7.22;1.77;;;;;;;12.30;75.42;100523.25;5011777;28;20050;-77
2022/09/26 04:37:46;;;;;;;6.28;1.70;;;;;;;12.32;75.47;100511.28;5040125;28;20109;-77
2022/09/26 04:40:11;;;;;;;5.10;1.63;;;;;;;12.33;75.72;100513.00;5023646;28;20941;-77
2022/09/26 04:42:37;;;;;;;9.07;2.42;;;;;;;12.30;75.71;100499.19;5037042;28;20924;-77
2022/09/26 04:45:03;;;;;;;3.83;1.58;;;;;;;12.30;76.28;100482.00;5048041;28;20024;-77
2022/09/26 04:47:29;;;;;;;9.30;2.40;;;;;;;12.32;75.85;100479.47;5042818;28;20059;-77
2022/09/26 04:49:54;;;;;;;4.82;2.10;;;;;;;12.32;75.90;100467.47;5022830;28;20025;-77
2022/09/26 04:52:20;;;;;;;6.57;1.90;;;;;;;12.31;75.75;100460.53;5029409;28;20067;-77
2022/09/26 04:54:45;;;;;;;4.32;2.08;;;;;;;12.32;76.61;100467.47;5042615;28;20021;-77
2022/09/26 04:57:13;;;;;;;4.93;2.20;;;;;;;12.31;76.88;100459.69;5025878;28;20029;-77
2022/09/26 04:59:38;;;;;;;6.53;2.30;;;;;;;12.27;77.44;100451.06;5042782;28;20080;-76
2022/09/26 05:02:05;;;;;;;5.78;2.08;;;;;;;12.23;77.26;100445.81;5047309;28;20070;-77
2022/09/26 05:04:32;;;;;;;5.90;2.05;;;;;;;12.25;77.49;100426.94;5027139;28;20037;-76
2022/09/26 05:06:58;;;;;;;4.47;2.00;;;;;;;12.24;77.82;100434.66;5044635;28;20024;-76
2022/09/26 05:09:24;;;;;;;6.82;2.38;;;;;;;12.24;77.70;100425.22;5039118;28;20036;-76
2022/09/26 05:11:49;;;;;;;5.22;2.00;;;;;;;12.19;77.45;100416.53;5040612;28;20081;-77
2022/09/26 05:14:14;;;;;;;6.30;2.40;;;;;;;12.19;77.20;100418.25;5032139;28;20387;-76
2022/09/26 05:16:40;;;;;;;6.30;2.00;;;;;;;12.19;77.43;100419.13;5040617;28;20133;-76
2022/09/26 05:19:05;;;;;;;5.78;2.28;;;;;;;12.12;78.20;100414.72;5038033;28;20518;-77
2022/09/26 05:21:31;;;;;;;5.43;1.90;;;;;;;12.17;77.33;100407.94;5040242;28;20028;-76
2022/09/26 05:26:47;;;;;;;7.55;2.45;;;;;;;12.15;77.63;100404.47;5037868;28;20079;-77
2022/09/26 05:29:12;;;;;;;6.60;2.10;;;;;;;12.16;77.82;100398.47;5038002;28;20036;-76
2022/09/26 05:31:38;;;;;;;7.35;2.03;;;;;;;12.17;77.84;100413.09;5022711;28;20093;-77
2022/09/26 05:34:09;;;;;;;6.05;1.92;;;;;;;12.15;77.98;100404.47;5039093;28;20039;-76
2022/09/26 05:36:35;;;;;;;7.10;2.10;;;;;;;12.15;78.05;100396.75;5035793;28;20036;-77
2022/09/26 05:39:00;;;;;;;6.35;1.85;;;;;;;12.16;77.81;100395.91;5007923;28;20043;-76
2022/09/26 05:41:28;;;;;;;5.75;2.10;;;;;;;12.15;77.64;100394.16;5017784;28;20476;-76
2022/09/26 05:43:54;;;;;;;6.53;2.60;;;;;;;12.16;77.86;100395.03;5046741;28;20500;-76
2022/09/26 05:46:20;;;;;;;4.20;1.70;;;;;;;12.15;77.46;100396.75;5041980;28;20447;-76
2022/09/26 05:48:45;;;;;;;6.53;2.10;;;;;;;12.14;78.18;100392.44;5052126;28;20090;-76
2022/09/26 05:51:13;;;;;;;11.48;2.08;;;;;;;12.17;78.53;100397.63;5046442;28;20037;-76
2022/09/26 05:53:40;;;;;;;7.32;2.50;;;;;;;12.10;77.94;100379.47;5054622;28;20444;-76
2022/09/26 05:56:06;;;;;;;4.35;2.10;;;;;;;12.16;78.08;100384.72;5049363;28;20036;-76
2022/09/26 05:58:34;;;;;;;4.22;2.03;;;;;;;12.17;78.41;100387.31;5040589;28;20017;-76
2022/09/26 06:01:05;;;;;;;6.75;2.30;;;;;;;12.16;78.49;100374.41;5030427;28;20056;-76
2022/09/26 06:03:33;;;;;;;8.15;2.63;;;;;;;12.16;78.43;100366.69;5039114;28;20582;-78
2022/09/26 06:06:07;;;;;;;9.27;2.60;;;;;;;12.12;78.53;100360.59;5045943;28;20138;-77
2022/09/26 06:08:34;;;;;;;7.07;2.47;;;;;;;12.12;78.07;100363.19;5022777;28;20056;-77
2022/09/26 06:11:05;;;;;;;5.72;2.95;;;;;;;12.08;78.71;100354.56;5017188;28;20167;-77
2022/09/26 06:13:36;;;;;;;8.18;2.70;;;;;;;12.08;78.96;100343.38;5040436;28;20424;-77
2022/09/26 06:16:04;;;;;;;9.02;2.90;;;;;;;12.08;78.69;100340.81;5040852;28;20047;-77
2022/09/26 06:18:32;;;;;;;7.53;2.58;;;;;;;12.07;78.97;100329.63;5046560;28;20535;-77
2022/09/26 06:21:06;;;;;;;6.07;2.60;;;;;;;12.07;78.96;100321.91;5037121;28;20055;-77
2022/09/26 06:23:33;;;;;;;8.82;2.85;;;;;;;12.08;79.01;100308.16;5049509;28;20058;-77
2022/09/26 06:25:59;;;;;;;8.70;2.80;;;;;;;12.10;78.86;100308.19;5018568;28;20052;-77
2022/09/26 06:28:34;;;;;;;9.13;2.70;;;;;;;12.12;78.88;100301.31;5053120;28;20471;-77
2022/09/26 06:30:59;;;;;;;7.65;2.95;;;;;;;12.03;79.37;100288.34;5050162;28;20033;-77
2022/09/26 06:33:25;;;;;;;5.57;2.60;;;;;;;12.08;79.26;100297.88;5044908;28;20060;-77
2022/09/26 06:36:01;;;;;;;6.97;2.50;;;;;;;12.12;78.82;100285.00;5036180;28;20029;-77
2022/09/26 06:38:27;;;;;;;7.25;2.50;;;;;;;12.08;79.03;100276.38;5046651;28;21028;-77
2022/09/26 06:40:53;;;;;;;7.03;2.20;;;;;;;12.11;79.11;100278.97;5042896;28;20040;-78
2022/09/26 06:43:19;;;;;;;5.50;2.28;;;;;;;12.05;78.91;100256.56;5047935;28;20021;-78
2022/09/26 06:45:48;;;;;;;5.82;2.38;;;;;;;12.08;79.14;100256.63;5050767;28;20059;-74
2022/09/26 06:48:14;;;;;;;5.47;2.70;;;;;;;12.11;78.80;100247.19;5047951;28;20043;-74
2022/09/26 06:50:40;;;;;;;7.93;2.33;;;;;;;12.14;78.91;100242.09;5034601;28;20372;-73
2022/09/26 06:53:05;;;;;;;4.97;2.10;;;;;;;12.14;79.05;100242.97;5016008;28;20036;-73
2022/09/26 06:55:31;;;;;;;5.65;2.08;;;;;;;12.18;79.05;100244.69;5045987;28;20071;-73
2022/09/26 06:57:57;;;;;;;4.90;2.00;;;;;;;12.13;79.11;100238.63;5032949;28;20540;-73
2022/09/26 07:00:23;;;;;;;5.97;2.03;;;;;;;12.15;78.64;100233.50;5029195;28;20613;-73
2022/09/26 07:02:51;;;;;;;6.00;1.90;;;;;;;12.19;78.80;100230.97;5041403;28;20041;-73
2022/09/26 07:05:16;;;;;;;5.03;1.85;;;;;;;12.21;79.03;100224.13;5041041;28;20032;-73
2022/09/26 07:07:44;;;;;;;3.92;1.48;;;;;;;12.19;79.00;100222.38;5049973;28;20023;-72
2022/09/26 07:10:10;;;;;;;6.05;1.80;;;;;;;12.19;78.36;100214.63;5051051;28;20030;-73
2022/09/26 07:12:39;;;;;;;4.38;1.73;;;;;;;12.23;78.64;100212.13;5054087;28;20055;-73
2022/09/26 07:15:05;;;;;;;4.75;1.88;;;;;;;12.22;79.03;100199.22;5048330;28;20534;-73
2022/09/26 07:17:30;;;;;;;5.00;1.60;;;;;;;12.24;78.67;100193.22;5044350;28;20032;-73
2022/09/26 07:19:56;;;;;;;4.28;1.60;;;;;;;12.26;78.69;100185.53;5027152;28;20040;-73
2022/09/26 07:22:21;;;;;;;4.43;1.60;;;;;;;12.26;78.38;100188.97;5046651;28;20084;-72
2022/09/26 07:24:49;;;;;;;9.18;1.60;;;;;;;12.27;78.27;100198.41;5028746;28;20118;-73
2022/09/26 07:27:15;;;;;;;4.40;1.52;;;;;;;12.25;78.56;100194.94;5018728;28;20480;-74
2022/09/26 07:29:41;;;;;;;5.63;1.90;;;;;;;12.32;78.73;100186.44;5044842;28;20112;-74
2022/09/26 07:32:06;;;;;;;4.60;1.67;;;;;;;12.32;78.47;100177.84;5046842;28;20548;-73
2022/09/26 07:34:32;;;;;;;5.65;1.80;;;;;;;12.30;78.18;100172.66;5047452;28;20563;-73
2022/09/26 07:36:58;;;;;;;6.40;1.67;;;;;;;12.31;78.47;100176.97;5048793;28;20048;-72
2022/09/26 07:39:25;;;;;;;4.00;1.17;;;;;;;12.35;78.57;100180.44;5053918;28;20349;-73
2022/09/26 07:41:51;;;;;;;4.20;1.30;;;;;;;12.32;78.52;100175.28;5045281;28;20040;-73
2022/09/26 07:44:16;;;;;;;5.55;1.50;;;;;;;12.32;78.95;100175.28;5042272;28;20042;-72
2022/09/26 07:52:10;;;;;;;5.25;1.70;;;;;;;12.38;79.02;100165.03;5060099;28;20127;-73
2022/09/26 07:54:38;;;;;;;5.10;1.95;;;;;;;12.43;79.09;100167.63;5023429;28;20123;-73
2022/09/26 07:57:04;;;;;;;6.55;1.70;;;;;;;12.42;79.31;100165.91;5056080;28;20079;-72
2022/09/26 07:59:34;;;;;;;6.63;1.75;;;;;;;12.41;79.27;100161.59;5059537;28;20495;-73
2022/09/26 08:02:01;;;;;;;4.03;1.50;;;;;;;12.46;79.13;100158.22;5052221;28;20049;-72
2022/09/26 08:04:27;;;;;;;5.32;1.65;;;;;;;12.47;79.23;100143.59;5049140;28;20112;-73
2022/09/26 08:06:54;;;;;;;10.55;1.70;;;;;;;12.48;78.99;100153.91;5054183;28;20448;-72
2022/09/26 08:09:20;;;;;;;5.05;1.35;;;;;;;12.50;79.23;100143.66;5040307;28;20036;-72
2022/09/26 08:11:45;;;;;;;4.82;1.80;;;;;;;12.53;79.02;100134.19;5025145;28;20120;-72
2022/09/26 08:14:11;;;;;;;5.15;1.48;;;;;;;12.53;79.04;100134.19;5045703;28;20135;-73
2022/09/26 08:16:40;;;;;;;6.03;1.60;;;;;;;12.54;79.27;100127.31;5034850;28;20037;-73
2022/09/26 08:19:07;;;;;;;5.53;1.83;;;;;;;12.58;79.26;100126.50;5053587;28;20108;-73
2022/09/26 08:21:32;;;;;;;6.55;1.70;;;;;;;12.58;79.54;100121.34;5048421;28;20464;-72
2022/09/26 08:23:58;;;;;;;5.38;1.63;;;;;;;12.59;79.71;100120.50;5020863;28;20037;-73
2022/09/26 08:26:23;;;;;;;6.25;1.80;;;;;;;12.62;79.26;100123.13;5033380;28;20039;-73
2022/09/26 08:28:49;;;;;;;6.03;1.60;;;;;;;12.58;79.77;100118.78;5030720;28;20419;-73
2022/09/26 08:31:15;;;;;;;5.03;1.88;;;;;;;12.61;79.78;100129.97;5042893;28;20013;-71
2022/09/26 08:33:40;;;;;;;6.38;1.67;;;;;;;12.58;79.66;100127.38;5052076;28;20035;-72
2022/09/26 08:36:12;;;;;;;6.65;1.63;;;;;;;12.61;79.72;100134.25;5046887;28;20020;-72
2022/09/26 08:38:38;;;;;;;5.82;1.50;;;;;;;12.61;79.77;100127.38;5036675;28;20085;-72
2022/09/26 08:41:33;;;;;;;6.78;1.73;;;;;;;12.67;80.11;100120.53;5050700;28;20032;-72
2022/09/26 08:44:23;;;;;;;6.22;1.90;;;;;;;12.69;79.95;100118.88;5027792;28;20048;-72
2022/09/26 08:47:16;;;;;;;7.55;2.15;;;;;;;12.68;80.32;100112.84;5039276;28;20029;-72
2022/09/26 08:50:11;;;;;;;5.97;1.60;;;;;;;12.73;80.23;100113.72;5045520;28;20097;-72
2022/09/26 08:53:12;;;;;;;6.88;1.90;;;;;;;12.77;80.12;100110.31;5047389;28;20025;-71
2022/09/26 08:55:47;;;;;;;5.10;1.77;;;;;;;12.75;80.40;100103.44;5028647;28;20087;-70
2022/09/26 08:58:25;;;;;;;4.70;1.48;;;;;;;12.77;80.41;100107.72;5051241;28;20481;-70
2022/09/26 09:00:57;;;;;;;7.40;1.70;;;;;;;12.79;80.79;100107.75;5035856;28;20075;-70
2022/09/26 09:03:34;;;;;;;7.00;1.80;;;;;;;12.81;81.24;100116.38;5052838;28;20388;-70
2022/09/26 09:06:12;;;;;;;8.98;1.67;;;;;;;12.80;81.61;100109.47;5049691;28;20036;-70
2022/09/26 09:08:42;;;;;;;7.15;1.60;;;;;;;12.79;82.31;100100.84;5053670;28;20032;-71
2022/09/26 09:11:26;;;;;;;6.97;1.92;;;;;;;12.80;83.02;100102.63;5029039;28;20061;-71
2022/09/26 09:14:24;;;;;;;6.28;1.75;;;;;;;12.81;82.31;100081.13;5037974;28;20123;-70
2022/09/26 09:17:14;;;;;;;7.32;1.92;;;;;;;12.81;83.52;100078.53;5009469;28;20080;-72
2022/09/26 09:19:52;;;;;;;8.70;1.80;;;;;;;12.75;84.34;100083.66;5046569;28;20024;-71
2022/09/26 09:22:45;;;;;;;6.60;2.00;;;;;;;12.81;84.75;100075.09;5044352;28;20413;-72
2022/09/26 09:25:19;;;;;;;4.40;1.67;;;;;;;12.80;85.09;100066.50;5039696;28;20095;-71
2022/09/26 09:28:01;;;;;;;8.23;1.83;;;;;;;12.82;84.97;100066.50;5048492;28;20029;-72
2022/09/26 09:30:39;;;;;;;7.18;1.80;;;;;;;12.82;85.69;100053.59;5047389;28;20028;-71
2022/09/26 09:33:24;;;;;;;5.15;2.05;;;;;;;12.84;86.39;100057.91;5034291;28;20032;-70
2022/09/26 09:35:54;;;;;;;6.63;1.75;;;;;;;12.83;86.80;100051.00;5048174;28;20024;-70
2022/09/26 09:38:32;;;;;;;7.00;1.90;;;;;;;12.86;86.39;100056.22;5043306;28;20075;-71
2022/09/26 09:40:57;;;;;;;6.80;2.00;;;;;;;12.81;86.83;100028.66;5024742;28;20143;-71
2022/09/26 09:43:30;;;;;;;6.45;1.80;;;;;;;12.83;87.84;100030.38;5035988;28;20109;-71
2022/09/26 09:46:03;;;;;;;8.52;1.90;;;;;;;12.82;87.19;100028.66;5046493;28;20538;-70
2022/09/26 09:48:29;;;;;;;4.60;1.83;;;;;;;12.86;87.69;100027.81;5053566;28;20025;-70
2022/09/26 09:51:19;;;;;;;6.93;2.30;;;;;;;12.88;87.85;100023.53;5029904;28;20175;-71
2022/09/26 09:54:08;;;;;;;7.97;2.67;;;;;;;12.93;87.92;100020.13;5029743;28;20495;-71
2022/09/26 09:56:57;;;;;;;;;;;;;;;13.05;86.24;100012.44;5034278;28;20021;-71
2022/09/26 09:59:42;;;;;;;10.43;2.38;;;;;;;12.99;87.33;100008.09;5059877;28;19985;-71
2022/09/26 10:02:29;;;;;;;6.47;2.00;;;;;;;12.99;87.12;99997.78;5040083;28;20515;-71
2022/09/26 10:05:15;;;;;;;8.40;2.28;;;;;;;13.01;87.88;100003.81;5051268;28;20048;-71
2022/09/26 10:07:41;;;;;;;7.50;2.00;;;;;;;12.97;87.53;99996.03;5045269;28;20025;-72
2022/09/26 10:10:14;;;;;;;7.13;2.25;;;;;;;12.97;87.70;99996.03;5046812;28;20020;-72
2022/09/26 10:12:41;;;;;;;7.28;2.45;;;;;;;12.95;87.87;99990.00;5053438;28;20024;-72
2022/09/26 10:15:18;;;;;;;8.07;2.10;;;;;;;12.98;88.48;99983.13;5036993;28;20124;-72
2022/09/26 10:17:59;;;;;;;8.88;2.13;;;;;;;13.02;88.07;99973.69;5052141;28;20020;-72
2022/09/26 10:20:56;;;;;;;5.22;2.08;;;;;;;13.08;88.17;99973.72;5051440;28;20039;-72
2022/09/26 10:23:43;;;;;;;5.03;2.00;;;;;;;13.01;88.88;99965.09;5042229;28;20036;-73
2022/09/26 10:26:10;;;;;;;7.03;2.40;;;;;;;12.95;88.04;99967.66;5043333;28;20523;-72
2022/09/26 10:28:54;;;;;;;6.55;2.10;;;;;;;12.98;88.10;99953.88;5033154;28;20020;-72
2022/09/26 10:31:35;;;;;;;7.68;2.30;;;;;;;13.00;88.79;99959.94;5048067;28;20044;-71
2022/09/26 10:34:23;;;;;;;6.75;2.03;;;;;;;13.00;88.43;99952.19;5057104;28;21499;-72
2022/09/26 10:36:49;;;;;;;12.15;2.80;;;;;;;12.99;88.88;99945.31;5047211;28;20082;-73
2022/09/26 10:42:00;;;;;;;8.10;2.30;;;;;;;12.96;88.55;99940.97;5051243;28;20076;-74
2022/09/26 10:44:35;;;;;;;7.53;2.15;;;;;;;12.93;88.76;99946.16;5045491;28;20029;-74
2022/09/26 10:47:10;;;;;;;5.35;1.90;;;;;;;12.93;88.97;99951.31;5053115;28;20036;-74
2022/09/26 10:49:51;;;;;;;4.65;2.13;;;;;;;12.94;89.46;99940.13;5025987;28;20039;-74
2022/09/26 10:52:27;;;;;;;7.72;2.20;;;;;;;12.90;90.22;99933.22;5028820;28;20059;-74
2022/09/26 10:54:57;;;;;;;6.40;2.25;;;;;;;12.90;90.21;99940.97;5032339;28;20028;-75
2022/09/26 10:57:34;;;;;;;6.53;3.00;;;;;;;12.97;89.89;99934.09;5019947;28;20033;-75
2022/09/26 11:00:07;;;;;;;4.15;2.35;;;;;;;12.86;90.47;99928.91;5036601;28;20068;-73
2022/09/26 11:02:35;;;;;;;5.75;2.30;;;;;;;12.89;90.38;99927.19;5026427;28;20086;-72
2022/09/26 11:07:51;;;;;;;8.10;2.03;;;;;;;12.89;90.84;99927.19;5042849;28;20044;-73
2022/09/26 11:10:23;;;;;;;6.88;2.15;;;;;;;12.92;90.72;99928.06;5032099;28;20050;-74
2022/09/26 11:13:01;;;;;;;3.78;2.00;;;;;;;12.94;90.88;99923.78;5038793;28;20064;-73
2022/09/26 11:15:27;;;;;;;4.25;1.90;;;;;;;12.87;90.71;99913.44;5031485;28;20029;-74
2022/09/26 11:17:54;;;;;;;7.45;2.08;;;;;;;12.86;91.25;99921.16;5041273;28;20056;-74
2022/09/26 11:20:44;;;;;;;4.97;2.13;;;;;;;12.93;91.24;99920.34;5043582;28;20049;-74
2022/09/26 11:23:37;;;;;;;3.65;2.38;;;;;;;12.89;91.74;99908.28;5036766;28;20111;-74
2022/09/26 11:26:40;;;;;;;3.78;1.90;;;;;;;12.93;91.25;99915.19;5043599;28;20029;-74
2022/09/26 11:29:15;;;;;;;8.70;1.95;;;;;;;12.91;91.54;99908.28;5044762;28;20104;-74
2022/09/26 11:31:42;;;;;;;6.75;2.15;;;;;;;12.89;91.66;99913.44;5023278;28;20025;-74
2022/09/26 11:34:15;;;;;;;5.00;2.10;;;;;;;12.85;91.63;99906.53;5032601;28;20033;-74
2022/09/26 11:37:00;;;;;;;5.60;1.90;;;;;;;12.88;91.76;99911.72;5046257;28;20498;-75
2022/09/26 11:39:57;;;;;;;6.15;2.00;;;;;;;12.87;92.20;99907.44;5046858;28;20444;-74
2022/09/26 11:42:51;;;;;;;5.80;1.80;;;;;;;12.87;91.47;99907.44;5037945;28;20037;-74
2022/09/26 11:45:28;;;;;;;5.03;1.92;;;;;;;12.90;91.75;99902.25;5047979;28;20092;-73
2022/09/26 11:48:36;;;;;;;5.50;1.70;;;;;;;12.93;91.73;99898.84;5049379;28;20041;-73
2022/09/26 11:51:12;;;;;;;3.90;1.98;;;;;;;12.87;91.89;99905.72;5010175;28;20048;-73
2022/09/26 11:53:52;;;;;;;3.70;1.70;;;;;;;12.89;91.67;99901.41;5028384;28;20029;-74
2022/09/26 11:56:55;;;;;;;4.07;1.60;;;;;;;12.93;92.14;99901.44;5053276;28;20056;-74
2022/09/26 11:59:45;;;;;;;3.95;1.90;;;;;;;12.89;91.95;99893.66;5025871;28;20048;-74
2022/09/26 12:02:36;;;;;;;5.13;1.85;;;;;;;12.91;92.18;99887.63;5046306;28;20021;-74
2022/09/26 12:05:30;;;;;;;4.68;1.70;;;;;;;12.86;92.50;99891.09;5031549;28;20108;-74